sensor_id;sensor_type;location;lat;lon;timestamp;temperature;humidity
65378;SHT31;51982;51.042;13.806;2023-07-13T00:00:12;25.49;62.94
65378;SHT31;51982;51.042;13.806;2023-07-13T00:02:40;25.47;63.53
65378;SHT31;51982;51.042;13.806;2023-07-13T00:05:06;25.50;63.41
65378;SHT31;51982;51.042;13.806;2023-07-13T00:07:31;25.45;63.22
65378;SHT31;51982;51.042;13.806;2023-07-13T00:09:56;25.45;63.19
65378;SHT31;51982;51.042;13.806;2023-07-13T00:12:27;25.43;63.42
65378;SHT31;51982;51.042;13.806;2023-07-13T00:14:56;25.43;63.69
65378;SHT31;51982;51.042;13.806;2023-07-13T00:17:22;25.45;63.60
65378;SHT31;51982;51.042;13.806;2023-07-13T00:19:47;25.42;63.71
65378;SHT31;51982;51.042;13.806;2023-07-13T00:22:13;25.41;63.51
65378;SHT31;51982;51.042;13.806;2023-07-13T00:24:38;25.43;63.84
65378;SHT31;51982;51.042;13.806;2023-07-13T00:27:07;25.43;63.37
65378;SHT31;51982;51.042;13.806;2023-07-13T00:29:33;25.43;63.54
65378;SHT31;51982;51.042;13.806;2023-07-13T00:31:59;25.42;63.29
65378;SHT31;51982;51.042;13.806;2023-07-13T00:34:24;25.39;63.51
65378;SHT31;51982;51.042;13.806;2023-07-13T00:36:49;25.39;63.82
65378;SHT31;51982;51.042;13.806;2023-07-13T00:39:14;25.39;64.51
65378;SHT31;51982;51.042;13.806;2023-07-13T00:41:39;25.36;65.23
65378;SHT31;51982;51.042;13.806;2023-07-13T00:44:05;25.32;66.15
65378;SHT31;51982;51.042;13.806;2023-07-13T00:46:33;25.29;66.68
65378;SHT31;51982;51.042;13.806;2023-07-13T00:49:01;25.22;66.79
65378;SHT31;51982;51.042;13.806;2023-07-13T00:51:32;25.19;67.22
65378;SHT31;51982;51.042;13.806;2023-07-13T00:54:03;25.14;67.26
65378;SHT31;51982;51.042;13.806;2023-07-13T00:56:30;25.12;67.82
65378;SHT31;51982;51.042;13.806;2023-07-13T00:58:57;25.14;68.88
65378;SHT31;51982;51.042;13.806;2023-07-13T01:01:22;25.08;69.25
65378;SHT31;51982;51.042;13.806;2023-07-13T01:03:48;25.07;69.98
65378;SHT31;51982;51.042;13.806;2023-07-13T01:06:13;24.91;70.24
65378;SHT31;51982;51.042;13.806;2023-07-13T01:08:38;24.85;70.28
65378;SHT31;51982;51.042;13.806;2023-07-13T01:11:05;24.72;70.79
65378;SHT31;51982;51.042;13.806;2023-07-13T01:13:30;24.61;71.16
65378;SHT31;51982;51.042;13.806;2023-07-13T01:15:58;24.56;71.86
65378;SHT31;51982;51.042;13.806;2023-07-13T01:18:27;24.49;72.33
65378;SHT31;51982;51.042;13.806;2023-07-13T01:20:59;24.39;73.05
65378;SHT31;51982;51.042;13.806;2023-07-13T01:23:26;24.21;73.48
65378;SHT31;51982;51.042;13.806;2023-07-13T01:25:52;24.16;73.91
65378;SHT31;51982;51.042;13.806;2023-07-13T01:28:18;24.14;74.02
65378;SHT31;51982;51.042;13.806;2023-07-13T01:30:45;24.16;74.12
65378;SHT31;51982;51.042;13.806;2023-07-13T01:33:13;24.16;74.19
65378;SHT31;51982;51.042;13.806;2023-07-13T01:35:39;24.12;74.16
65378;SHT31;51982;51.042;13.806;2023-07-13T01:38:05;24.02;74.30
65378;SHT31;51982;51.042;13.806;2023-07-13T01:40:30;24.00;74.43
65378;SHT31;51982;51.042;13.806;2023-07-13T01:42:56;24.02;74.41
65378;SHT31;51982;51.042;13.806;2023-07-13T01:45:21;24.02;74.38
65378;SHT31;51982;51.042;13.806;2023-07-13T01:47:47;24.03;73.97
65378;SHT31;51982;51.042;13.806;2023-07-13T01:50:12;23.98;74.00
65378;SHT31;51982;51.042;13.806;2023-07-13T01:52:37;23.93;74.58
65378;SHT31;51982;51.042;13.806;2023-07-13T01:55:03;23.92;74.71
65378;SHT31;51982;51.042;13.806;2023-07-13T01:57:28;23.92;74.55
65378;SHT31;51982;51.042;13.806;2023-07-13T01:59:53;23.96;74.60
65378;SHT31;51982;51.042;13.806;2023-07-13T02:02:19;23.86;74.79
65378;SHT31;51982;51.042;13.806;2023-07-13T02:04:44;23.86;74.84
65378;SHT31;51982;51.042;13.806;2023-07-13T02:07:09;23.72;75.06
65378;SHT31;51982;51.042;13.806;2023-07-13T02:09:35;23.65;75.51
65378;SHT31;51982;51.042;13.806;2023-07-13T02:12:00;23.55;75.98
65378;SHT31;51982;51.042;13.806;2023-07-13T02:14:25;23.57;75.81
65378;SHT31;51982;51.042;13.806;2023-07-13T02:16:51;23.51;76.08
65378;SHT31;51982;51.042;13.806;2023-07-13T02:19:16;23.49;76.29
65378;SHT31;51982;51.042;13.806;2023-07-13T02:21:42;23.45;76.26
65378;SHT31;51982;51.042;13.806;2023-07-13T02:24:07;23.45;76.22
65378;SHT31;51982;51.042;13.806;2023-07-13T02:26:34;23.45;76.05
65378;SHT31;51982;51.042;13.806;2023-07-13T02:28:59;23.41;76.30
65378;SHT31;51982;51.042;13.806;2023-07-13T02:31:25;23.29;76.63
65378;SHT31;51982;51.042;13.806;2023-07-13T02:33:50;23.24;76.77
65378;SHT31;51982;51.042;13.806;2023-07-13T02:36:15;23.15;77.10
65378;SHT31;51982;51.042;13.806;2023-07-13T02:38:41;23.14;77.16
65378;SHT31;51982;51.042;13.806;2023-07-13T02:41:07;23.15;77.12
65378;SHT31;51982;51.042;13.806;2023-07-13T02:43:34;23.19;77.02
65378;SHT31;51982;51.042;13.806;2023-07-13T02:46:01;23.15;76.86
65378;SHT31;51982;51.042;13.806;2023-07-13T02:48:32;23.17;76.87
65378;SHT31;51982;51.042;13.806;2023-07-13T02:50:57;23.15;77.04
65378;SHT31;51982;51.042;13.806;2023-07-13T02:53:22;23.10;77.10
65378;SHT31;51982;51.042;13.806;2023-07-13T02:55:47;23.14;76.99
65378;SHT31;51982;51.042;13.806;2023-07-13T02:58:13;23.07;77.08
65378;SHT31;51982;51.042;13.806;2023-07-13T03:00:42;23.07;76.67
65378;SHT31;51982;51.042;13.806;2023-07-13T03:03:07;23.08;76.35
65378;SHT31;51982;51.042;13.806;2023-07-13T03:05:33;23.06;76.47
65378;SHT31;51982;51.042;13.806;2023-07-13T03:07:58;23.00;76.86
65378;SHT31;51982;51.042;13.806;2023-07-13T03:10:23;22.98;76.85
65378;SHT31;51982;51.042;13.806;2023-07-13T03:12:48;23.00;76.72
65378;SHT31;51982;51.042;13.806;2023-07-13T03:15:14;22.98;76.78
65378;SHT31;51982;51.042;13.806;2023-07-13T03:17:39;22.93;76.95
65378;SHT31;51982;51.042;13.806;2023-07-13T03:20:05;22.93;76.77
65378;SHT31;51982;51.042;13.806;2023-07-13T03:22:30;22.93;76.61
65378;SHT31;51982;51.042;13.806;2023-07-13T03:24:56;22.93;76.76
65378;SHT31;51982;51.042;13.806;2023-07-13T03:27:21;22.88;76.95
65378;SHT31;51982;51.042;13.806;2023-07-13T03:29:47;22.91;76.98
65378;SHT31;51982;51.042;13.806;2023-07-13T03:32:12;22.87;76.90
65378;SHT31;51982;51.042;13.806;2023-07-13T03:34:37;22.83;77.03
65378;SHT31;51982;51.042;13.806;2023-07-13T03:37:02;22.81;77.09
65378;SHT31;51982;51.042;13.806;2023-07-13T03:39:28;22.73;77.24
65378;SHT31;51982;51.042;13.806;2023-07-13T03:41:53;22.77;77.17
65378;SHT31;51982;51.042;13.806;2023-07-13T03:44:19;22.76;77.31
65378;SHT31;51982;51.042;13.806;2023-07-13T03:46:47;22.77;77.25
65378;SHT31;51982;51.042;13.806;2023-07-13T03:49:13;22.73;77.47
65378;SHT31;51982;51.042;13.806;2023-07-13T03:51:38;22.77;77.11
65378;SHT31;51982;51.042;13.806;2023-07-13T03:54:03;22.78;77.09
65378;SHT31;51982;51.042;13.806;2023-07-13T03:56:29;22.78;76.92
65378;SHT31;51982;51.042;13.806;2023-07-13T03:58:56;22.76;76.75
65378;SHT31;51982;51.042;13.806;2023-07-13T04:01:23;22.74;76.69
65378;SHT31;51982;51.042;13.806;2023-07-13T04:03:50;22.74;76.67
65378;SHT31;51982;51.042;13.806;2023-07-13T04:06:20;22.66;76.98
65378;SHT31;51982;51.042;13.806;2023-07-13T04:08:48;22.67;77.02
65378;SHT31;51982;51.042;13.806;2023-07-13T04:11:14;22.66;77.05
65378;SHT31;51982;51.042;13.806;2023-07-13T04:13:39;22.61;77.39
65378;SHT31;51982;51.042;13.806;2023-07-13T04:16:04;22.63;77.56
65378;SHT31;51982;51.042;13.806;2023-07-13T04:18:30;22.64;77.62
65378;SHT31;51982;51.042;13.806;2023-07-13T04:20:55;22.66;77.47
65378;SHT31;51982;51.042;13.806;2023-07-13T04:23:20;22.70;77.29
65378;SHT31;51982;51.042;13.806;2023-07-13T04:25:46;22.74;77.27
65378;SHT31;51982;51.042;13.806;2023-07-13T04:28:14;22.76;77.54
65378;SHT31;51982;51.042;13.806;2023-07-13T04:30:40;22.81;77.26
65378;SHT31;51982;51.042;13.806;2023-07-13T04:33:05;22.83;76.98
65378;SHT31;51982;51.042;13.806;2023-07-13T04:35:30;22.84;77.05
65378;SHT31;51982;51.042;13.806;2023-07-13T04:37:56;22.78;77.39
65378;SHT31;51982;51.042;13.806;2023-07-13T04:40:22;22.77;77.52
65378;SHT31;51982;51.042;13.806;2023-07-13T04:42:47;22.78;77.28
65378;SHT31;51982;51.042;13.806;2023-07-13T04:45:13;22.78;77.28
65378;SHT31;51982;51.042;13.806;2023-07-13T04:47:39;22.80;77.15
65378;SHT31;51982;51.042;13.806;2023-07-13T04:50:06;22.78;77.33
65378;SHT31;51982;51.042;13.806;2023-07-13T04:52:31;22.76;77.24
65378;SHT31;51982;51.042;13.806;2023-07-13T04:54:58;22.68;77.54
65378;SHT31;51982;51.042;13.806;2023-07-13T04:57:23;22.67;77.83
65378;SHT31;51982;51.042;13.806;2023-07-13T04:59:48;22.66;77.75
65378;SHT31;51982;51.042;13.806;2023-07-13T05:02:14;22.67;77.82
65378;SHT31;51982;51.042;13.806;2023-07-13T05:04:39;22.67;77.84
65378;SHT31;51982;51.042;13.806;2023-07-13T05:07:05;22.67;77.76
65378;SHT31;51982;51.042;13.806;2023-07-13T05:09:31;22.68;77.74
65378;SHT31;51982;51.042;13.806;2023-07-13T05:11:56;22.70;77.74
65378;SHT31;51982;51.042;13.806;2023-07-13T05:14:21;22.74;77.72
65378;SHT31;51982;51.042;13.806;2023-07-13T05:16:46;22.78;77.72
65378;SHT31;51982;51.042;13.806;2023-07-13T05:19:12;22.84;77.79
65378;SHT31;51982;51.042;13.806;2023-07-13T05:21:37;22.90;77.93
65378;SHT31;51982;51.042;13.806;2023-07-13T05:24:03;22.90;78.17
65378;SHT31;51982;51.042;13.806;2023-07-13T05:26:28;22.96;78.30
65378;SHT31;51982;51.042;13.806;2023-07-13T05:28:53;22.96;78.20
65378;SHT31;51982;51.042;13.806;2023-07-13T05:31:18;23.03;78.07
65378;SHT31;51982;51.042;13.806;2023-07-13T05:33:44;23.04;78.08
65378;SHT31;51982;51.042;13.806;2023-07-13T05:36:09;23.11;78.17
65378;SHT31;51982;51.042;13.806;2023-07-13T05:38:34;23.11;77.98
65378;SHT31;51982;51.042;13.806;2023-07-13T05:40:59;23.08;78.03
65378;SHT31;51982;51.042;13.806;2023-07-13T05:43:25;23.07;77.92
65378;SHT31;51982;51.042;13.806;2023-07-13T05:45:54;23.06;77.61
65378;SHT31;51982;51.042;13.806;2023-07-13T05:48:20;23.06;77.61
65378;SHT31;51982;51.042;13.806;2023-07-13T05:50:45;23.10;77.51
65378;SHT31;51982;51.042;13.806;2023-07-13T05:53:11;23.10;77.61
65378;SHT31;51982;51.042;13.806;2023-07-13T05:55:41;23.03;77.74
65378;SHT31;51982;51.042;13.806;2023-07-13T05:58:07;23.07;77.71
65378;SHT31;51982;51.042;13.806;2023-07-13T06:00:32;23.06;77.76
65378;SHT31;51982;51.042;13.806;2023-07-13T06:02:58;23.07;77.94
65378;SHT31;51982;51.042;13.806;2023-07-13T06:05:23;23.08;77.97
65378;SHT31;51982;51.042;13.806;2023-07-13T06:07:49;22.97;78.20
65378;SHT31;51982;51.042;13.806;2023-07-13T06:10:14;23.00;78.32
65378;SHT31;51982;51.042;13.806;2023-07-13T06:12:39;23.04;78.13
65378;SHT31;51982;51.042;13.806;2023-07-13T06:15:05;23.07;77.92
65378;SHT31;51982;51.042;13.806;2023-07-13T06:17:30;23.08;78.08
65378;SHT31;51982;51.042;13.806;2023-07-13T06:19:56;23.08;78.26
65378;SHT31;51982;51.042;13.806;2023-07-13T06:22:21;23.14;78.22
65378;SHT31;51982;51.042;13.806;2023-07-13T06:24:46;23.12;78.30
65378;SHT31;51982;51.042;13.806;2023-07-13T06:27:11;23.21;78.41
65378;SHT31;51982;51.042;13.806;2023-07-13T06:29:37;23.31;78.25
65378;SHT31;51982;51.042;13.806;2023-07-13T06:32:02;23.42;78.02
65378;SHT31;51982;51.042;13.806;2023-07-13T06:34:27;23.42;77.90
65378;SHT31;51982;51.042;13.806;2023-07-13T06:36:52;23.49;77.96
65378;SHT31;51982;51.042;13.806;2023-07-13T06:39:18;23.57;77.91
65378;SHT31;51982;51.042;13.806;2023-07-13T06:41:43;23.59;77.84
65378;SHT31;51982;51.042;13.806;2023-07-13T06:44:08;23.62;77.76
65378;SHT31;51982;51.042;13.806;2023-07-13T06:46:33;23.61;77.63
65378;SHT31;51982;51.042;13.806;2023-07-13T06:48:58;23.58;77.70
65378;SHT31;51982;51.042;13.806;2023-07-13T06:51:24;23.59;77.80
65378;SHT31;51982;51.042;13.806;2023-07-13T06:53:49;23.66;77.66
65378;SHT31;51982;51.042;13.806;2023-07-13T06:56:15;23.73;77.53
65378;SHT31;51982;51.042;13.806;2023-07-13T06:58:40;23.78;77.60
65378;SHT31;51982;51.042;13.806;2023-07-13T07:01:05;23.78;77.89
65378;SHT31;51982;51.042;13.806;2023-07-13T07:03:31;23.82;77.51
65378;SHT31;51982;51.042;13.806;2023-07-13T07:06:15;23.83;77.34
65378;SHT31;51982;51.042;13.806;2023-07-13T07:08:41;23.89;77.17
65378;SHT31;51982;51.042;13.806;2023-07-13T07:11:10;23.92;77.00
65378;SHT31;51982;51.042;13.806;2023-07-13T07:13:35;23.93;77.13
65378;SHT31;51982;51.042;13.806;2023-07-13T07:16:00;24.03;76.92
65378;SHT31;51982;51.042;13.806;2023-07-13T07:18:25;24.13;76.71
65378;SHT31;51982;51.042;13.806;2023-07-13T07:20:51;24.17;76.31
65378;SHT31;51982;51.042;13.806;2023-07-13T07:23:16;24.20;75.87
65378;SHT31;51982;51.042;13.806;2023-07-13T07:25:43;24.27;74.34
65378;SHT31;51982;51.042;13.806;2023-07-13T07:28:09;24.39;73.28
65378;SHT31;51982;51.042;13.806;2023-07-13T07:30:34;24.36;72.30
65378;SHT31;51982;51.042;13.806;2023-07-13T07:33:00;24.47;72.88
65378;SHT31;51982;51.042;13.806;2023-07-13T07:35:26;24.51;72.26
65378;SHT31;51982;51.042;13.806;2023-07-13T07:37:51;24.59;71.76
65378;SHT31;51982;51.042;13.806;2023-07-13T07:40:17;24.63;71.16
65378;SHT31;51982;51.042;13.806;2023-07-13T07:42:42;24.60;70.19
65378;SHT31;51982;51.042;13.806;2023-07-13T07:45:08;24.54;68.96
65378;SHT31;51982;51.042;13.806;2023-07-13T07:47:33;24.59;69.11
65378;SHT31;51982;51.042;13.806;2023-07-13T07:49:58;24.63;69.65
65378;SHT31;51982;51.042;13.806;2023-07-13T07:52:24;24.65;68.63
65378;SHT31;51982;51.042;13.806;2023-07-13T07:54:49;24.71;69.19
65378;SHT31;51982;51.042;13.806;2023-07-13T07:57:14;24.75;68.12
65378;SHT31;51982;51.042;13.806;2023-07-13T07:59:39;24.71;67.72
65378;SHT31;51982;51.042;13.806;2023-07-13T08:02:05;24.71;67.32
65378;SHT31;51982;51.042;13.806;2023-07-13T08:04:30;24.81;67.57
65378;SHT31;51982;51.042;13.806;2023-07-13T08:06:55;24.78;66.52
65378;SHT31;51982;51.042;13.806;2023-07-13T08:09:22;24.81;66.76
65378;SHT31;51982;51.042;13.806;2023-07-13T08:11:47;24.96;68.14
65378;SHT31;51982;51.042;13.806;2023-07-13T08:14:12;24.92;66.07
65378;SHT31;51982;51.042;13.806;2023-07-13T08:16:38;24.96;65.86
65378;SHT31;51982;51.042;13.806;2023-07-13T08:19:03;24.98;66.56
65378;SHT31;51982;51.042;13.806;2023-07-13T08:21:29;25.07;66.84
65378;SHT31;51982;51.042;13.806;2023-07-13T08:23:55;25.04;65.88
65378;SHT31;51982;51.042;13.806;2023-07-13T08:26:20;24.92;65.28
65378;SHT31;51982;51.042;13.806;2023-07-13T08:28:46;24.85;64.30
65378;SHT31;51982;51.042;13.806;2023-07-13T08:31:12;24.90;64.48
65378;SHT31;51982;51.042;13.806;2023-07-13T08:33:38;24.98;64.90
65378;SHT31;51982;51.042;13.806;2023-07-13T08:36:05;25.02;65.01
65378;SHT31;51982;51.042;13.806;2023-07-13T08:38:31;25.07;64.84
65378;SHT31;51982;51.042;13.806;2023-07-13T08:40:57;25.11;65.11
65378;SHT31;51982;51.042;13.806;2023-07-13T08:43:28;25.07;63.92
65378;SHT31;51982;51.042;13.806;2023-07-13T08:48:58;25.25;63.83
65378;SHT31;51982;51.042;13.806;2023-07-13T08:51:44;25.38;63.12
65378;SHT31;51982;51.042;13.806;2023-07-13T08:54:31;25.42;62.70
65378;SHT31;51982;51.042;13.806;2023-07-13T08:56:57;25.53;63.59
65378;SHT31;51982;51.042;13.806;2023-07-13T08:59:26;25.62;63.14
65378;SHT31;51982;51.042;13.806;2023-07-13T09:04:44;25.47;61.28
65378;SHT31;51982;51.042;13.806;2023-07-13T09:10:23;25.67;62.30
65378;SHT31;51982;51.042;13.806;2023-07-13T09:13:13;25.76;62.30
65378;SHT31;51982;51.042;13.806;2023-07-13T09:15:44;25.84;62.01
65378;SHT31;51982;51.042;13.806;2023-07-13T09:18:15;25.79;60.80
65378;SHT31;51982;51.042;13.806;2023-07-13T09:20:46;25.89;61.44
65378;SHT31;51982;51.042;13.806;2023-07-13T09:23:20;25.86;60.38
65378;SHT31;51982;51.042;13.806;2023-07-13T09:25:48;25.98;61.58
65378;SHT31;51982;51.042;13.806;2023-07-13T09:28:19;26.03;60.91
65378;SHT31;51982;51.042;13.806;2023-07-13T09:33:10;25.96;59.62
65378;SHT31;51982;51.042;13.806;2023-07-13T09:35:35;26.04;60.75
65378;SHT31;51982;51.042;13.806;2023-07-13T09:38:11;26.06;61.09
65378;SHT31;51982;51.042;13.806;2023-07-13T09:41:11;26.04;60.92
65378;SHT31;51982;51.042;13.806;2023-07-13T09:44:07;26.06;60.62
65378;SHT31;51982;51.042;13.806;2023-07-13T09:46:36;26.07;61.18
65378;SHT31;51982;51.042;13.806;2023-07-13T09:49:01;25.97;60.72
65378;SHT31;51982;51.042;13.806;2023-07-13T09:51:26;26.01;61.17
65378;SHT31;51982;51.042;13.806;2023-07-13T09:53:52;26.03;61.08
65378;SHT31;51982;51.042;13.806;2023-07-13T09:56:27;26.03;61.10
65378;SHT31;51982;51.042;13.806;2023-07-13T09:58:53;25.92;60.16
65378;SHT31;51982;51.042;13.806;2023-07-13T10:01:38;25.97;60.87
65378;SHT31;51982;51.042;13.806;2023-07-13T10:04:13;26.07;60.57
65378;SHT31;51982;51.042;13.806;2023-07-13T10:06:40;26.07;60.79
65378;SHT31;51982;51.042;13.806;2023-07-13T10:09:09;26.07;61.02
65378;SHT31;51982;51.042;13.806;2023-07-13T10:11:35;26.04;60.94
65378;SHT31;51982;51.042;13.806;2023-07-13T10:14:02;26.04;60.84
65378;SHT31;51982;51.042;13.806;2023-07-13T10:16:34;26.10;60.81
65378;SHT31;51982;51.042;13.806;2023-07-13T10:19:05;26.12;60.18
65378;SHT31;51982;51.042;13.806;2023-07-13T10:21:35;26.12;60.15
65378;SHT31;51982;51.042;13.806;2023-07-13T10:24:12;26.18;60.28
65378;SHT31;51982;51.042;13.806;2023-07-13T10:26:43;26.33;60.45
65378;SHT31;51982;51.042;13.806;2023-07-13T10:29:12;26.44;59.86
65378;SHT31;51982;51.042;13.806;2023-07-13T10:31:40;26.54;60.65
65378;SHT31;51982;51.042;13.806;2023-07-13T10:34:09;26.61;59.76
65378;SHT31;51982;51.042;13.806;2023-07-13T10:36:41;26.68;60.16
65378;SHT31;51982;51.042;13.806;2023-07-13T10:39:15;26.72;59.65
65378;SHT31;51982;51.042;13.806;2023-07-13T10:41:41;26.74;59.58
65378;SHT31;51982;51.042;13.806;2023-07-13T10:44:18;26.71;58.88
65378;SHT31;51982;51.042;13.806;2023-07-13T10:46:45;26.61;58.81
65378;SHT31;51982;51.042;13.806;2023-07-13T10:49:11;26.69;59.45
65378;SHT31;51982;51.042;13.806;2023-07-13T10:51:37;26.75;59.97
65378;SHT31;51982;51.042;13.806;2023-07-13T10:54:14;26.79;59.18
65378;SHT31;51982;51.042;13.806;2023-07-13T10:56:45;26.84;59.12
65378;SHT31;51982;51.042;13.806;2023-07-13T10:59:15;26.87;59.60
65378;SHT31;51982;51.042;13.806;2023-07-13T11:01:50;26.94;59.12
65378;SHT31;51982;51.042;13.806;2023-07-13T11:04:18;26.99;59.23
65378;SHT31;51982;51.042;13.806;2023-07-13T11:06:47;26.94;58.35
65378;SHT31;51982;51.042;13.806;2023-07-13T11:17:47;27.09;57.06
65378;SHT31;51982;51.042;13.806;2023-07-13T11:25:32;27.22;56.01
65378;SHT31;51982;51.042;13.806;2023-07-13T11:33:20;27.29;56.26
65378;SHT31;51982;51.042;13.806;2023-07-13T11:38:27;27.42;56.86
65378;SHT31;51982;51.042;13.806;2023-07-13T11:40:54;27.35;56.98
65378;SHT31;51982;51.042;13.806;2023-07-13T11:43:20;27.18;56.55
65378;SHT31;51982;51.042;13.806;2023-07-13T11:45:48;27.18;56.76
65378;SHT31;51982;51.042;13.806;2023-07-13T11:48:33;27.19;57.09
65378;SHT31;51982;51.042;13.806;2023-07-13T11:51:02;27.19;56.45
65378;SHT31;51982;51.042;13.806;2023-07-13T11:53:37;27.20;56.13
65378;SHT31;51982;51.042;13.806;2023-07-13T11:56:03;27.19;56.47
65378;SHT31;51982;51.042;13.806;2023-07-13T11:58:29;27.20;56.44
65378;SHT31;51982;51.042;13.806;2023-07-13T12:00:58;27.22;56.68
65378;SHT31;51982;51.042;13.806;2023-07-13T12:03:24;27.20;55.83
65378;SHT31;51982;51.042;13.806;2023-07-13T12:06:04;27.25;56.11
65378;SHT31;51982;51.042;13.806;2023-07-13T12:08:38;27.36;56.26
65378;SHT31;51982;51.042;13.806;2023-07-13T12:11:14;27.45;56.13
65378;SHT31;51982;51.042;13.806;2023-07-13T12:13:40;27.46;56.59
65378;SHT31;51982;51.042;13.806;2023-07-13T12:16:30;27.47;56.64
65378;SHT31;51982;51.042;13.806;2023-07-13T12:18:59;27.51;56.64
65378;SHT31;51982;51.042;13.806;2023-07-13T12:21:38;27.43;56.55
65378;SHT31;51982;51.042;13.806;2023-07-13T12:24:04;27.45;56.75
65378;SHT31;51982;51.042;13.806;2023-07-13T12:26:36;27.40;56.27
65378;SHT31;51982;51.042;13.806;2023-07-13T12:29:05;27.36;56.22
65378;SHT31;51982;51.042;13.806;2023-07-13T12:31:37;27.38;55.98
65378;SHT31;51982;51.042;13.806;2023-07-13T12:34:08;27.40;56.11
65378;SHT31;51982;51.042;13.806;2023-07-13T12:36:36;27.43;55.63
65378;SHT31;51982;51.042;13.806;2023-07-13T12:39:15;27.29;55.30
65378;SHT31;51982;51.042;13.806;2023-07-13T12:41:41;27.30;55.42
65378;SHT31;51982;51.042;13.806;2023-07-13T12:44:13;27.25;55.65
65378;SHT31;51982;51.042;13.806;2023-07-13T12:46:39;27.15;55.40
65378;SHT31;51982;51.042;13.806;2023-07-13T12:49:07;27.22;55.91
65378;SHT31;51982;51.042;13.806;2023-07-13T12:51:32;27.29;56.12
65378;SHT31;51982;51.042;13.806;2023-07-13T12:54:17;27.47;56.35
65378;SHT31;51982;51.042;13.806;2023-07-13T12:56:43;27.54;56.06
65378;SHT31;51982;51.042;13.806;2023-07-13T12:59:18;27.60;55.04
65378;SHT31;51982;51.042;13.806;2023-07-13T13:01:44;27.64;54.99
65378;SHT31;51982;51.042;13.806;2023-07-13T13:04:11;27.69;55.44
65378;SHT31;51982;51.042;13.806;2023-07-13T13:06:38;27.73;54.50
65378;SHT31;51982;51.042;13.806;2023-07-13T13:09:11;27.76;54.34
65378;SHT31;51982;51.042;13.806;2023-07-13T13:11:37;27.69;53.47
65378;SHT31;51982;51.042;13.806;2023-07-13T13:14:02;27.66;53.94
65378;SHT31;51982;51.042;13.806;2023-07-13T13:16:31;27.67;54.02
65378;SHT31;51982;51.042;13.806;2023-07-13T13:19:05;27.66;53.86
65378;SHT31;51982;51.042;13.806;2023-07-13T13:21:35;27.69;53.73
65378;SHT31;51982;51.042;13.806;2023-07-13T13:24:01;27.70;53.93
65378;SHT31;51982;51.042;13.806;2023-07-13T13:26:26;27.73;53.81
65378;SHT31;51982;51.042;13.806;2023-07-13T13:28:51;27.66;53.55
65378;SHT31;51982;51.042;13.806;2023-07-13T13:31:16;27.67;53.51
65378;SHT31;51982;51.042;13.806;2023-07-13T13:33:44;27.66;54.06
65378;SHT31;51982;51.042;13.806;2023-07-13T13:36:15;27.64;53.97
65378;SHT31;51982;51.042;13.806;2023-07-13T13:38:42;27.69;53.40
65378;SHT31;51982;51.042;13.806;2023-07-13T13:41:10;27.74;53.15
65378;SHT31;51982;51.042;13.806;2023-07-13T13:43:35;27.77;53.17
65378;SHT31;51982;51.042;13.806;2023-07-13T13:46:01;27.83;52.80
65378;SHT31;51982;51.042;13.806;2023-07-13T13:48:31;27.90;52.72
65378;SHT31;51982;51.042;13.806;2023-07-13T13:50:57;27.96;52.72
65378;SHT31;51982;51.042;13.806;2023-07-13T13:53:22;27.96;52.74
65378;SHT31;51982;51.042;13.806;2023-07-13T13:55:51;27.96;53.01
65378;SHT31;51982;51.042;13.806;2023-07-13T13:58:18;27.93;52.52
65378;SHT31;51982;51.042;13.806;2023-07-13T14:00:43;27.87;52.54
65378;SHT31;51982;51.042;13.806;2023-07-13T14:03:18;27.80;52.40
65378;SHT31;51982;51.042;13.806;2023-07-13T14:05:44;27.76;52.46
65378;SHT31;51982;51.042;13.806;2023-07-13T14:08:16;27.73;52.71
65378;SHT31;51982;51.042;13.806;2023-07-13T14:10:42;27.67;52.77
65378;SHT31;51982;51.042;13.806;2023-07-13T14:13:19;27.71;53.02
65378;SHT31;51982;51.042;13.806;2023-07-13T14:15:46;27.76;53.12
65378;SHT31;51982;51.042;13.806;2023-07-13T14:18:11;27.76;52.85
65378;SHT31;51982;51.042;13.806;2023-07-13T14:20:37;27.79;52.48
65378;SHT31;51982;51.042;13.806;2023-07-13T14:23:02;27.80;52.71
65378;SHT31;51982;51.042;13.806;2023-07-13T14:25:28;27.80;52.96
65378;SHT31;51982;51.042;13.806;2023-07-13T14:27:56;27.86;53.13
65378;SHT31;51982;51.042;13.806;2023-07-13T14:30:24;27.81;53.25
65378;SHT31;51982;51.042;13.806;2023-07-13T14:32:50;27.76;52.84
65378;SHT31;51982;51.042;13.806;2023-07-13T14:35:18;27.66;52.95
65378;SHT31;51982;51.042;13.806;2023-07-13T14:37:45;27.74;53.08
65378;SHT31;51982;51.042;13.806;2023-07-13T14:40:16;27.77;53.42
65378;SHT31;51982;51.042;13.806;2023-07-13T14:42:42;27.76;52.92
65378;SHT31;51982;51.042;13.806;2023-07-13T14:45:15;27.79;53.01
65378;SHT31;51982;51.042;13.806;2023-07-13T14:47:40;27.76;53.12
65378;SHT31;51982;51.042;13.806;2023-07-13T14:50:15;27.79;53.01
65378;SHT31;51982;51.042;13.806;2023-07-13T14:52:42;27.74;53.09
65378;SHT31;51982;51.042;13.806;2023-07-13T14:55:12;27.61;52.78
65378;SHT31;51982;51.042;13.806;2023-07-13T14:57:38;27.67;53.15
65378;SHT31;51982;51.042;13.806;2023-07-13T15:00:05;27.63;53.00
65378;SHT31;51982;51.042;13.806;2023-07-13T15:02:34;27.56;52.87
65378;SHT31;51982;51.042;13.806;2023-07-13T15:05:11;27.51;52.65
65378;SHT31;51982;51.042;13.806;2023-07-13T15:07:37;27.56;52.90
65378;SHT31;51982;51.042;13.806;2023-07-13T15:10:12;27.59;53.13
65378;SHT31;51982;51.042;13.806;2023-07-13T15:12:37;27.59;53.20
65378;SHT31;51982;51.042;13.806;2023-07-13T15:15:02;27.59;52.85
65378;SHT31;51982;51.042;13.806;2023-07-13T15:17:35;27.59;52.19
65378;SHT31;51982;51.042;13.806;2023-07-13T15:22:58;27.59;52.10
65378;SHT31;51982;51.042;13.806;2023-07-13T15:25:25;27.59;51.77
65378;SHT31;51982;51.042;13.806;2023-07-13T15:27:52;27.54;51.45
65378;SHT31;51982;51.042;13.806;2023-07-13T15:30:18;27.47;51.47
65378;SHT31;51982;51.042;13.806;2023-07-13T15:32:45;27.50;51.53
65378;SHT31;51982;51.042;13.806;2023-07-13T15:35:21;27.46;51.50
65378;SHT31;51982;51.042;13.806;2023-07-13T15:37:47;27.49;51.86
65378;SHT31;51982;51.042;13.806;2023-07-13T15:40:14;27.51;51.64
65378;SHT31;51982;51.042;13.806;2023-07-13T15:42:41;27.53;51.50
65378;SHT31;51982;51.042;13.806;2023-07-13T15:45:23;27.50;51.38
65378;SHT31;51982;51.042;13.806;2023-07-13T15:47:50;27.49;51.18
65378;SHT31;51982;51.042;13.806;2023-07-13T15:50:23;27.42;50.70
65378;SHT31;51982;51.042;13.806;2023-07-13T15:52:52;27.45;50.21